Time;durP1;ratioP1;P1;durP2;ratioP2;P2;SDS_P1;SDS_P2;PMS_P1;PMS_P2;Temp;Humidity;BMP_temperature;BMP_pressure;BME280_temperature;BME280_humidity;BME280_pressure;Samples;Min_cycle;Max_cycle;Signal;HPM_P1;HPM_P2
2022/08/09 00:01:47;;;;;;;1999.90;999.90;;;20.50;99.90;;;;;;5031819;28;20642;-67
2022/08/09 00:04:14;;;;;;;1999.90;999.90;;;20.50;99.90;;;;;;5031855;28;20502;-67
2022/08/09 00:06:40;;;;;;;1999.90;999.90;;;20.50;99.90;;;;;;5035396;28;20417;-66
2022/08/09 00:09:06;;;;;;;1999.90;999.90;;;20.50;99.90;;;;;;5035918;28;20412;-67
2022/08/09 00:11:31;;;;;;;1999.90;999.90;;;20.40;99.90;;;;;;5035856;28;20181;-67
2022/08/09 00:13:57;;;;;;;1999.90;999.90;;;20.40;99.90;;;;;;5035686;28;20663;-67
2022/08/09 00:16:23;;;;;;;1999.90;999.90;;;20.40;99.90;;;;;;5035595;28;20181;-67
2022/08/09 00:18:48;;;;;;;1999.90;999.90;;;20.40;99.90;;;;;;5035715;28;20173;-66
2022/08/09 00:21:14;;;;;;;1999.90;999.90;;;20.40;99.90;;;;;;5035625;28;20199;-67
2022/08/09 00:23:40;;;;;;;1999.90;999.90;;;20.40;99.90;;;;;;5035589;28;20568;-66
2022/08/09 00:26:06;;;;;;;1999.90;999.90;;;20.30;99.90;;;;;;5035333;28;20506;-68
2022/08/09 00:28:33;;;;;;;1999.90;999.90;;;20.30;99.90;;;;;;5035593;28;20204;-67
2022/08/09 00:30:59;;;;;;;1999.90;999.90;;;20.30;99.90;;;;;;5035533;28;20409;-67
2022/08/09 00:33:25;;;;;;;1999.90;999.90;;;20.20;99.90;;;;;;5035323;28;20817;-67
2022/08/09 00:35:51;;;;;;;1999.90;999.90;;;20.20;99.90;;;;;;5035391;28;20417;-67
2022/08/09 00:38:17;;;;;;;1999.90;999.90;;;20.20;99.90;;;;;;5035260;28;20400;-67
2022/08/09 00:40:43;;;;;;;1999.90;999.90;;;20.10;99.90;;;;;;5035323;28;20423;-67
2022/08/09 00:43:08;;;;;;;1999.90;999.90;;;20.00;99.90;;;;;;5035198;28;20199;-68
2022/08/09 00:45:34;;;;;;;1999.90;999.90;;;20.00;99.90;;;;;;5035220;28;20423;-68
2022/08/09 00:48:01;;;;;;;1999.90;999.90;;;20.00;99.90;;;;;;5035008;28;20178;-67
2022/08/09 00:50:27;;;;;;;1999.90;999.90;;;19.90;99.90;;;;;;5041068;28;20187;-68
2022/08/09 00:52:53;;;;;;;1999.90;999.90;;;19.90;99.90;;;;;;5028236;28;20451;-67
2022/08/09 00:55:19;;;;;;;1999.90;999.90;;;19.80;99.90;;;;;;5024261;28;20209;-67
2022/08/09 00:57:45;;;;;;;1999.90;999.90;;;19.80;99.90;;;;;;5034688;28;20399;-66
2022/08/09 01:00:11;;;;;;;1999.90;999.90;;;19.70;99.90;;;;;;5035006;28;20375;-67
2022/08/09 01:02:47;;;;;;;1999.90;999.90;;;19.70;99.90;;;;;;5034957;28;20859;-66
2022/08/09 01:05:44;;;;;;;1999.90;999.90;;;19.60;99.90;;;;;;5035794;28;20439;-67
2022/08/09 01:08:23;;;;;;;1999.90;999.90;;;19.60;99.90;;;;;;5045772;28;20428;-68
2022/08/09 01:11:10;;;;;;;1999.90;999.90;;;19.60;99.90;;;;;;5045789;28;20420;-66
2022/08/09 01:13:50;;;;;;;1999.90;999.90;;;19.50;99.90;;;;;;5045226;28;20450;-67
2022/08/09 01:16:21;;;;;;;1999.90;999.90;;;19.50;99.90;;;;;;5027309;28;20407;-67
2022/08/09 01:18:48;;;;;;;1999.90;999.90;;;19.40;99.90;;;;;;5044656;28;20404;-67
2022/08/09 01:21:33;;;;;;;1999.90;999.90;;;19.40;99.90;;;;;;5043194;28;20382;-67
2022/08/09 01:24:04;;;;;;;1999.90;999.90;;;19.40;99.90;;;;;;5044499;28;20427;-68
2022/08/09 01:27:00;;;;;;;1999.90;999.90;;;19.40;99.90;;;;;;5044564;28;20415;-68
2022/08/09 01:29:34;;;;;;;1999.90;999.90;;;19.40;99.90;;;;;;5038016;28;20491;-67
2022/08/09 01:32:03;;;;;;;1999.90;999.90;;;19.30;99.90;;;;;;5027713;28;20423;-66
2022/08/09 01:34:31;;;;;;;1999.90;999.90;;;19.30;99.90;;;;;;5038172;28;20793;-67
2022/08/09 01:37:00;;;;;;;1999.90;999.90;;;19.30;99.90;;;;;;5033908;28;20426;-66
2022/08/09 01:39:27;;;;;;;1999.90;999.90;;;19.30;99.90;;;;;;5034292;28;20489;-67
2022/08/09 01:41:54;;;;;;;1999.90;999.90;;;19.30;99.90;;;;;;5034242;28;20407;-66
2022/08/09 01:44:22;;;;;;;1999.90;999.90;;;19.30;99.90;;;;;;5034272;28;20437;-67
2022/08/09 01:46:49;;;;;;;1999.90;999.90;;;19.20;99.90;;;;;;5033819;28;20410;-67
2022/08/09 01:49:16;;;;;;;1999.90;999.90;;;19.20;99.90;;;;;;5034086;28;20403;-67
2022/08/09 01:51:53;;;;;;;1999.90;999.90;;;19.10;99.90;;;;;;5034031;28;20468;-66
2022/08/09 01:54:22;;;;;;;1999.90;999.90;;;19.10;99.90;;;;;;5034072;28;20459;-68
2022/08/09 01:56:51;;;;;;;1999.90;999.90;;;19.00;99.90;;;;;;5033774;28;20783;-67
2022/08/09 01:59:19;;;;;;;1999.90;999.90;;;18.90;99.90;;;;;;5033917;28;20446;-67
2022/08/09 02:01:49;;;;;;;1999.90;999.90;;;18.90;99.90;;;;;;5033867;28;20438;-67
2022/08/09 02:04:16;;;;;;;1999.90;999.90;;;18.90;99.90;;;;;;5033827;28;20397;-67
2022/08/09 02:09:29;;;;;;;1999.90;999.90;;;18.80;99.90;;;;;;5034040;28;20792;-67
2022/08/09 02:11:55;;;;;;;1999.90;999.90;;;18.80;99.90;;;;;;5033597;28;20446;-67
2022/08/09 02:14:23;;;;;;;1999.90;999.90;;;18.80;99.90;;;;;;5033540;28;20460;-67
2022/08/09 02:16:50;;;;;;;1999.90;999.90;;;18.80;99.90;;;;;;5033274;28;20444;-67
2022/08/09 02:19:16;;;;;;;1999.90;999.90;;;18.80;99.90;;;;;;5033587;28;20377;-67
2022/08/09 02:21:48;;;;;;;1999.90;999.90;;;18.70;99.90;;;;;;5040751;28;20414;-68
2022/08/09 02:24:22;;;;;;;1999.90;999.90;;;18.80;99.90;;;;;;5043726;28;20868;-68
2022/08/09 02:26:50;;;;;;;1999.90;999.90;;;18.70;99.90;;;;;;5024655;28;20485;-68
2022/08/09 02:29:24;;;;;;;1999.90;999.90;;;18.70;99.90;;;;;;5024786;28;20425;-67
2022/08/09 02:31:53;;;;;;;1999.90;999.90;;;18.60;99.90;;;;;;5042052;28;20406;-67
2022/08/09 02:34:27;;;;;;;1999.90;999.90;;;18.40;99.90;;;;;;5041732;28;21022;-67
2022/08/09 02:36:56;;;;;;;1999.90;999.90;;;18.30;99.90;;;;;;5040821;28;20406;-67
2022/08/09 02:39:28;;;;;;;1999.90;999.90;;;18.20;99.90;;;;;;5017470;28;20817;-67
2022/08/09 02:41:58;;;;;;;1999.90;999.90;;;18.20;99.90;;;;;;5033040;28;20405;-67
2022/08/09 02:44:37;;;;;;;1999.90;999.90;;;18.20;99.90;;;;;;5033114;28;20405;-67
2022/08/09 02:47:07;;;;;;;1999.90;999.90;;;18.20;99.90;;;;;;5032781;28;20407;-67
2022/08/09 02:49:40;;;;;;;1999.90;999.90;;;18.20;99.90;;;;;;5032883;28;20758;-67
2022/08/09 02:52:10;;;;;;;1999.90;999.90;;;18.20;99.90;;;;;;5032823;28;20436;-67
2022/08/09 02:54:38;;;;;;;1999.90;999.90;;;18.10;99.90;;;;;;5032954;28;20405;-67
2022/08/09 02:57:05;;;;;;;1999.90;999.90;;;18.20;99.90;;;;;;5032504;28;20447;-67
2022/08/09 02:59:34;;;;;;;1999.90;999.90;;;18.10;99.90;;;;;;5032760;28;20416;-67
2022/08/09 03:02:01;;;;;;;1999.90;999.90;;;18.10;99.90;;;;;;5032558;28;20405;-67
2022/08/09 03:04:28;;;;;;;1999.90;999.90;;;18.10;99.90;;;;;;5032677;28;20404;-67
2022/08/09 03:06:55;;;;;;;1999.90;999.90;;;18.10;99.90;;;;;;5032436;28;20794;-67
2022/08/09 03:09:22;;;;;;;1999.90;999.90;;;18.00;99.90;;;;;;5032680;28;20826;-67
2022/08/09 03:11:49;;;;;;;1999.90;999.90;;;18.00;99.90;;;;;;5032478;28;20501;-67
2022/08/09 03:14:17;;;;;;;1999.90;999.90;;;18.00;99.90;;;;;;5032400;28;20465;-67
2022/08/09 03:16:43;;;;;;;1999.90;999.90;;;18.00;99.90;;;;;;5037713;28;20781;-67
2022/08/09 03:19:10;;;;;;;1999.90;999.90;;;17.90;99.90;;;;;;5039794;28;20966;-68
2022/08/09 03:21:37;;;;;;;1999.90;999.90;;;17.90;99.90;;;;;;5038797;28;20402;-68
2022/08/09 03:24:03;;;;;;;1999.90;999.90;;;17.90;99.90;;;;;;5039212;28;20430;-67
2022/08/09 03:26:30;;;;;;;1999.90;999.90;;;17.80;99.90;;;;;;5039093;28;20405;-68
2022/08/09 03:28:58;;;;;;;1999.90;999.90;;;17.80;99.90;;;;;;5021177;28;20446;-67
2022/08/09 03:31:25;;;;;;;1999.90;999.90;;;17.80;99.90;;;;;;5040623;28;20415;-67
2022/08/09 03:33:53;;;;;;;1999.90;999.90;;;17.80;99.90;;;;;;5110550;22;20485;-70
2022/08/09 03:36:18;;;;;;;1999.90;999.90;;;17.80;99.90;;;;;;5038697;28;20403;-70
2022/08/09 03:38:44;;;;;;;1999.90;999.90;;;17.70;99.90;;;;;;5038624;28;20499;-70
2022/08/09 03:41:11;;;;;;;1999.90;999.90;;;17.70;99.90;;;;;;5038372;28;20164;-70
2022/08/09 03:43:37;;;;;;;1999.90;999.90;;;17.70;99.90;;;;;;5038503;28;20194;-70
2022/08/09 03:46:02;;;;;;;1999.90;999.90;;;17.60;99.90;;;;;;5039610;28;20787;-69
2022/08/09 03:48:31;;;;;;;1999.90;999.90;;;17.60;99.90;;;;;;5039183;28;20175;-70
2022/08/09 03:50:57;;;;;;;1999.90;999.90;;;17.60;99.90;;;;;;5035612;28;20230;-69
2022/08/09 03:53:24;;;;;;;1999.90;999.90;;;17.50;99.90;;;;;;5031844;28;20538;-69
2022/08/09 03:55:49;;;;;;;1999.90;999.90;;;17.50;99.90;;;;;;5031823;28;20411;-69
2022/08/09 03:58:16;;;;;;;1999.90;999.90;;;17.50;99.90;;;;;;5031667;28;20451;-69
2022/08/09 04:00:44;;;;;;;1999.90;999.90;;;17.50;99.90;;;;;;5032100;28;20491;-69
2022/08/09 04:03:10;;;;;;;1999.90;999.90;;;17.50;99.90;;;;;;5031820;28;20856;-69
2022/08/09 04:05:36;;;;;;;1999.90;999.90;;;17.40;99.90;;;;;;5031860;28;20813;-69
2022/08/09 04:08:02;;;;;;;1999.90;999.90;;;17.40;99.90;;;;;;5031581;28;20417;-69
2022/08/09 04:10:27;;;;;;;1999.90;999.90;;;17.40;99.90;;;;;;5031594;28;20404;-69
2022/08/09 04:12:53;;;;;;;1999.90;999.90;;;17.40;99.90;;;;;;5032422;28;20208;-69
2022/08/09 04:15:21;;;;;;;1999.90;999.90;;;17.40;99.90;;;;;;5036533;28;20177;-69
2022/08/09 04:17:48;;;;;;;1999.90;999.90;;;17.30;99.90;;;;;;5036264;28;20469;-70
2022/08/09 04:20:15;;;;;;;1999.90;999.90;;;17.30;99.90;;;;;;5035851;28;20924;-69
2022/08/09 04:22:41;;;;;;;1999.90;999.90;;;17.20;99.90;;;;;;5031677;28;20526;-70
2022/08/09 04:25:08;;;;;;;1999.90;999.90;;;17.10;99.90;;;;;;5031685;28;20473;-70
2022/08/09 04:27:39;;;;;;;1999.90;999.90;;;17.20;99.90;;;;;;5031346;28;20411;-69
2022/08/09 04:30:07;;;;;;;1999.90;999.90;;;17.20;99.90;;;;;;5031842;28;20410;-69
2022/08/09 04:32:33;;;;;;;1999.90;999.90;;;17.20;99.90;;;;;;5031324;28;20858;-69
2022/08/09 04:34:58;;;;;;;1999.90;999.90;;;17.20;99.90;;;;;;5031648;28;20408;-69
2022/08/09 04:37:24;;;;;;;1999.90;999.90;;;17.30;99.90;;;;;;5031214;28;20174;-69
2022/08/09 04:39:50;;;;;;;1999.90;999.90;;;17.30;99.90;;;;;;5031501;28;20165;-69
2022/08/09 04:42:15;;;;;;;1999.90;999.90;;;17.30;99.90;;;;;;5031656;28;20173;-69
2022/08/09 04:44:41;;;;;;;1999.90;999.90;;;17.30;99.90;;;;;;5031518;28;20711;-69
2022/08/09 04:47:06;;;;;;;1999.90;999.90;;;17.30;99.90;;;;;;5031570;28;20173;-70
2022/08/09 04:49:35;;;;;;;1999.90;999.90;;;17.30;99.90;;;;;;5031622;28;20638;-70
2022/08/09 04:52:03;;;;;;;1999.90;999.90;;;17.20;99.90;;;;;;5033994;28;20177;-70
2022/08/09 04:54:29;;;;;;;1999.90;999.90;;;17.10;99.90;;;;;;5035001;28;20457;-70
2022/08/09 04:56:54;;;;;;;1999.90;999.90;;;17.10;99.90;;;;;;5034914;28;20455;-69
2022/08/09 04:59:20;;;;;;;1999.90;999.90;;;17.20;99.90;;;;;;5035232;28;20404;-70
2022/08/09 05:01:46;;;;;;;1999.90;999.90;;;17.30;99.90;;;;;;5035310;28;20579;-70
2022/08/09 05:04:11;;;;;;;1999.90;999.90;;;17.20;99.90;;;;;;5035020;28;20600;-69
2022/08/09 05:06:37;;;;;;;1999.90;999.90;;;17.20;99.90;;;;;;5034716;28;20168;-70
2022/08/09 05:09:03;;;;;;;1999.90;999.90;;;17.10;99.90;;;;;;5034923;28;20179;-70
2022/08/09 05:11:29;;;;;;;1999.90;999.90;;;17.10;99.90;;;;;;5034967;28;20256;-69
2022/08/09 05:13:54;;;;;;;1999.90;999.90;;;17.10;99.90;;;;;;5034824;28;20231;-70
2022/08/09 05:16:20;;;;;;;1999.90;999.90;;;17.10;99.90;;;;;;5034623;28;20170;-70
2022/08/09 05:18:46;;;;;;;1999.90;999.90;;;17.10;99.90;;;;;;5034704;28;20248;-70
2022/08/09 05:21:12;;;;;;;1999.90;999.90;;;17.20;99.90;;;;;;5034662;28;20179;-70
2022/08/09 05:23:38;;;;;;;1999.90;999.90;;;17.30;99.90;;;;;;5034668;28;20614;-70
2022/08/09 05:26:03;;;;;;;1999.90;999.90;;;17.30;99.90;;;;;;5034494;28;20417;-69
2022/08/09 05:28:29;;;;;;;1999.90;999.90;;;17.40;99.90;;;;;;5034464;28;20768;-70
2022/08/09 05:30:54;;;;;;;1999.90;999.90;;;17.40;99.90;;;;;;5034875;28;20172;-69
2022/08/09 05:33:20;;;;;;;1999.90;999.90;;;17.50;99.90;;;;;;5034273;28;20660;-70
2022/08/09 05:35:46;;;;;;;1999.90;999.90;;;17.50;99.90;;;;;;5034502;28;20516;-69
2022/08/09 05:38:11;;;;;;;1999.90;999.90;;;17.50;99.90;;;;;;5034030;28;20653;-69
2022/08/09 05:40:37;;;;;;;1999.90;999.90;;;17.50;99.90;;;;;;5034316;28;20216;-69
2022/08/09 05:43:03;;;;;;;1999.90;999.90;;;17.50;99.90;;;;;;5034190;28;20282;-69
2022/08/09 05:45:28;;;;;;;1999.90;999.90;;;17.50;99.90;;;;;;5034249;28;20176;-69
2022/08/09 05:47:55;;;;;;;1999.90;999.90;;;17.60;99.90;;;;;;5033912;28;20173;-70
2022/08/09 05:50:27;;;;;;;1999.90;999.90;;;17.60;99.90;;;;;;5034214;28;20171;-69
2022/08/09 05:52:53;;;;;;;1999.90;999.90;;;17.60;99.90;;;;;;5034253;28;21242;-70
2022/08/09 05:55:19;;;;;;;1999.90;999.90;;;17.70;99.90;;;;;;5034282;28;20437;-69
2022/08/09 05:57:44;;;;;;;1999.90;999.90;;;17.70;99.90;;;;;;5033673;28;20397;-70
2022/08/09 06:00:12;;;;;;;1999.90;999.90;;;17.70;99.90;;;;;;5034026;28;20902;-70
2022/08/09 06:02:38;;;;;;;1999.90;999.90;;;17.80;99.90;;;;;;5033002;28;20197;-70
2022/08/09 06:05:04;;;;;;;1999.90;999.90;;;17.90;99.90;;;;;;5033791;28;20784;-70
2022/08/09 06:07:30;;;;;;;1999.90;999.90;;;17.90;99.90;;;;;;5033416;28;20452;-70
2022/08/09 06:09:56;;;;;;;1999.90;999.90;;;18.00;99.90;;;;;;5033724;28;20434;-70
2022/08/09 06:12:22;;;;;;;1999.90;999.90;;;18.00;99.90;;;;;;5033561;28;20169;-69
2022/08/09 06:14:47;;;;;;;1999.90;999.90;;;18.00;99.90;;;;;;5034021;28;20427;-70
2022/08/09 06:17:13;;;;;;;1999.90;999.90;;;18.10;99.90;;;;;;5033380;28;20172;-70
2022/08/09 06:19:38;;;;;;;1999.90;999.90;;;18.20;99.90;;;;;;5033518;28;20165;-69
2022/08/09 06:22:05;;;;;;;1999.90;999.90;;;18.20;99.90;;;;;;5033508;28;20180;-70
2022/08/09 06:24:30;;;;;;;1999.90;999.90;;;18.30;99.90;;;;;;5033552;28;20290;-70
2022/08/09 06:26:56;;;;;;;1999.90;999.90;;;18.40;99.90;;;;;;5033189;28;20501;-69
2022/08/09 06:29:22;;;;;;;1999.90;999.90;;;18.50;99.90;;;;;;5033657;28;20182;-70
2022/08/09 06:31:48;;;;;;;1999.90;999.90;;;18.50;99.90;;;;;;5033423;28;20411;-70
2022/08/09 06:34:14;;;;;;;1999.90;999.90;;;18.60;99.90;;;;;;5033015;28;20494;-69
2022/08/09 06:36:39;;;;;;;1999.90;999.90;;;18.70;99.90;;;;;;5033005;28;20170;-69
2022/08/09 06:39:07;;;;;;;1999.90;999.90;;;18.70;99.90;;;;;;5033349;28;20171;-69
2022/08/09 06:41:33;;;;;;;1999.90;999.90;;;18.80;99.90;;;;;;5033459;28;20233;-70
2022/08/09 06:43:59;;;;;;;1999.90;999.90;;;18.90;99.90;;;;;;5033037;28;20430;-70
2022/08/09 06:46:24;;;;;;;1999.90;999.90;;;19.10;99.90;;;;;;5032858;28;20179;-69
2022/08/09 06:48:50;;;;;;;1999.90;999.90;;;19.30;99.90;;;;;;5032970;28;20175;-69
2022/08/09 06:51:15;;;;;;;1999.90;999.90;;;19.50;99.90;;;;;;5032966;28;20180;-70
2022/08/09 06:53:41;;;;;;;1999.90;999.90;;;19.60;99.90;;;;;;5032832;28;20566;-70
2022/08/09 06:56:07;;;;;;;1999.90;999.90;;;19.70;99.90;;;;;;5032715;28;20205;-69
2022/08/09 06:58:33;;;;;;;1999.90;999.90;;;19.60;99.90;;;;;;5032802;28;20178;-70
2022/08/09 07:00:59;;;;;;;1999.90;999.90;;;19.80;99.90;;;;;;5032898;28;20782;-70
2022/08/09 07:03:25;;;;;;;1999.90;999.90;;;19.90;99.90;;;;;;5032522;28;20663;-69
2022/08/09 07:05:50;;;;;;;1999.90;999.90;;;19.80;99.90;;;;;;5032602;28;20175;-69
2022/08/09 07:08:16;;;;;;;1999.90;999.90;;;19.80;99.90;;;;;;5032655;28;20579;-69
2022/08/09 07:10:42;;;;;;;1999.90;999.90;;;19.80;99.90;;;;;;5032659;28;20174;-69
2022/08/09 07:13:08;;;;;;;1999.90;999.90;;;19.80;99.90;;;;;;5032486;28;20456;-70
2022/08/09 07:15:34;;;;;;;1999.90;999.90;;;19.90;99.90;;;;;;5032414;28;20405;-70
2022/08/09 07:17:59;;;;;;;1999.90;999.90;;;20.10;99.90;;;;;;5032279;28;20545;-69
2022/08/09 07:20:25;;;;;;;1999.90;999.90;;;20.20;99.90;;;;;;5032443;28;20759;-69
2022/08/09 07:22:51;;;;;;;1999.90;999.90;;;20.20;99.90;;;;;;5032346;28;20195;-70
2022/08/09 07:25:17;;;;;;;1999.90;999.90;;;20.20;99.90;;;;;;5032828;28;20502;-69
2022/08/09 07:27:43;;;;;;;1999.90;999.90;;;20.30;99.90;;;;;;5032105;28;20487;-70
2022/08/09 07:30:12;;;;;;;1999.90;999.90;;;20.50;99.90;;;;;;5032399;28;20173;-69
2022/08/09 07:32:38;;;;;;;1999.90;999.90;;;20.60;99.90;;;;;;5031937;28;20214;-69
2022/08/09 07:35:06;;;;;;;1999.90;999.90;;;20.80;99.90;;;;;;5034065;28;20412;-70
2022/08/09 07:37:32;;;;;;;1999.90;999.90;;;21.00;99.90;;;;;;5035827;28;20413;-70
2022/08/09 07:39:57;;;;;;;1999.90;999.90;;;21.10;99.90;;;;;;5036548;28;20409;-70
2022/08/09 07:42:23;;;;;;;1999.90;999.90;;;21.30;99.90;;;;;;5035997;28;20409;-70
2022/08/09 07:44:49;;;;;;;1999.90;999.90;;;21.40;99.90;;;;;;5036449;28;20238;-70
2022/08/09 07:47:16;;;;;;;1999.90;999.90;;;21.50;99.90;;;;;;5035586;28;20171;-70
2022/08/09 07:49:42;;;;;;;1999.90;999.90;;;21.60;99.90;;;;;;5036044;28;20906;-70
2022/08/09 07:52:08;;;;;;;1999.90;999.90;;;21.70;99.90;;;;;;5035849;28;20383;-70
2022/08/09 07:54:34;;;;;;;1999.90;999.90;;;21.90;99.90;;;;;;5035831;28;20540;-70
2022/08/09 07:57:00;;;;;;;1999.90;999.90;;;21.90;99.90;;;;;;5035465;28;20410;-70
2022/08/09 07:59:26;;;;;;;1999.90;999.90;;;22.00;99.90;;;;;;5035961;28;20179;-70
2022/08/09 08:01:54;;;;;;;1999.90;999.90;;;21.90;99.90;;;;;;5035605;28;20477;-70
2022/08/09 08:04:21;;;;;;;1999.90;999.90;;;21.90;99.90;;;;;;5036717;28;20433;-70
2022/08/09 08:06:46;;;;;;;1999.90;999.90;;;22.00;99.90;;;;;;5035811;28;20484;-70
2022/08/09 08:09:12;;;;;;;1999.90;999.90;;;22.10;99.90;;;;;;5036417;28;20819;-70
2022/08/09 08:11:38;;;;;;;1999.90;999.90;;;22.20;99.90;;;;;;5036643;28;20550;-70
2022/08/09 08:14:04;;;;;;;1999.90;999.90;;;22.30;99.90;;;;;;5035470;28;20432;-70
2022/08/09 08:16:30;;;;;;;1999.90;999.90;;;22.40;99.90;;;;;;5035491;28;20168;-70
2022/08/09 08:18:56;;;;;;;1999.90;999.90;;;22.50;99.90;;;;;;5036591;28;20456;-70
2022/08/09 08:21:22;;;;;;;1999.90;999.90;;;22.60;99.90;;;;;;5036954;28;20415;-70
2022/08/09 08:23:48;;;;;;;1999.90;999.90;;;22.60;99.90;;;;;;5036247;28;20444;-70
2022/08/09 08:26:14;;;;;;;1999.90;999.90;;;22.80;99.90;;;;;;5036681;28;20426;-70
2022/08/09 08:28:39;;;;;;;1999.90;999.90;;;22.70;99.90;;;;;;5040538;28;20176;-69
2022/08/09 08:31:05;;;;;;;1999.90;999.90;;;22.60;99.90;;;;;;5040746;28;20251;-70
2022/08/09 08:33:31;;;;;;;1999.90;999.90;;;22.60;99.90;;;;;;5039614;28;20242;-70
2022/08/09 08:35:56;;;;;;;1999.90;999.90;;;22.60;99.90;;;;;;5039230;28;20183;-70
2022/08/09 08:38:22;;;;;;;1999.90;999.90;;;22.80;99.90;;;;;;5039452;28;20172;-70
2022/08/09 08:40:48;;;;;;;1999.90;999.90;;;22.90;99.90;;;;;;5038890;28;20635;-70
2022/08/09 08:43:14;;;;;;;1999.90;999.90;;;23.10;99.90;;;;;;5038894;28;20300;-70
2022/08/09 08:45:48;;;;;;;1999.90;999.90;;;23.30;99.90;;;;;;5038962;28;20767;-70
2022/08/09 08:48:15;;;;;;;1999.90;999.90;;;23.40;99.90;;;;;;5039087;28;20407;-70
2022/08/09 08:50:40;;;;;;;1999.90;999.90;;;23.60;99.90;;;;;;5039180;28;20378;-70
2022/08/09 08:53:06;;;;;;;1999.90;999.90;;;23.80;99.90;;;;;;5039141;28;20474;-70
2022/08/09 08:55:32;;;;;;;1999.90;999.90;;;23.90;99.90;;;;;;5037386;28;20226;-69
2022/08/09 08:57:57;;;;;;;1999.90;999.90;;;24.00;99.90;;;;;;5036303;28;20378;-70
2022/08/09 09:00:24;;;;;;;1999.90;999.90;;;24.10;99.90;;;;;;5037271;28;20165;-69
2022/08/09 09:02:50;;;;;;;1999.90;999.90;;;24.20;99.90;;;;;;5037351;28;20192;-70
2022/08/09 09:05:22;;;;;;;1999.90;999.90;;;24.30;99.90;;;;;;5038047;28;20411;-70
2022/08/09 09:07:49;;;;;;;1999.90;999.90;;;24.40;99.90;;;;;;5037063;28;20508;-70
2022/08/09 09:10:16;;;;;;;1999.90;999.90;;;24.40;99.90;;;;;;5036901;28;20476;-69
2022/08/09 09:12:44;;;;;;;1999.90;999.90;;;24.50;99.90;;;;;;5036725;28;20397;-70
2022/08/09 09:15:10;;;;;;;1999.90;999.90;;;24.70;99.90;;;;;;5037470;28;20374;-70
2022/08/09 09:17:36;;;;;;;1999.90;999.90;;;24.80;99.90;;;;;;5036810;28;20781;-70
2022/08/09 09:20:09;;;;;;;1999.90;999.90;;;24.90;99.90;;;;;;5037054;28;20246;-70
2022/08/09 09:22:53;;;;;;;1999.90;999.90;;;25.00;99.90;;;;;;5037325;28;20443;-69
2022/08/09 09:25:40;;;;;;;1999.90;999.90;;;25.20;99.90;;;;;;5036726;28;20410;-68
2022/08/09 09:28:07;;;;;;;1999.90;999.90;;;25.20;99.90;;;;;;5035813;28;20382;-69
2022/08/09 09:30:50;;;;;;;1999.90;999.90;;;25.20;99.90;;;;;;5035381;28;20452;-70
2022/08/09 09:33:16;;;;;;;1999.90;999.90;;;25.10;99.90;;;;;;5076949;22;20485;-67
2022/08/09 09:35:57;;;;;;;1999.90;999.90;;;25.30;99.90;;;;;;5038581;28;20386;-66
2022/08/09 09:38:38;;;;;;;1999.90;999.90;;;25.40;99.90;;;;;;5034880;28;20884;-67
2022/08/09 09:41:03;;;;;;;1999.90;999.90;;;25.50;99.90;;;;;;5040175;28;20481;-68
2022/08/09 09:43:30;;;;;;;1999.90;999.90;;;25.60;99.90;;;;;;5034161;28;20450;-67
2022/08/09 09:45:56;;;;;;;1999.90;999.90;;;25.80;99.90;;;;;;5036797;28;20206;-64
2022/08/09 09:48:22;;;;;;;1999.90;999.90;;;25.90;99.90;;;;;;5035761;28;20799;-68
2022/08/09 09:50:50;;;;;;;1999.90;999.90;;;26.00;99.20;;;;;;5034088;28;20417;-67
2022/08/09 09:53:26;;;;;;;1999.90;999.90;;;25.90;98.50;;;;;;5034059;28;20487;-68
2022/08/09 09:55:54;;;;;;;1999.90;999.90;;;25.80;99.30;;;;;;5033956;28;20892;-68
2022/08/09 09:58:20;;;;;;;1999.90;999.90;;;26.00;98.00;;;;;;5033837;28;20388;-68
2022/08/09 10:00:56;;;;;;;1999.90;999.90;;;26.30;96.40;;;;;;5033832;28;20399;-68
2022/08/09 10:03:42;;;;;;;1999.90;999.90;;;26.40;95.60;;;;;;5033831;28;20430;-67
2022/08/09 10:06:08;;;;;;;1999.90;999.90;;;26.50;93.10;;;;;;5033622;28;20455;-68
2022/08/09 10:08:33;;;;;;;1999.90;999.90;;;26.50;93.20;;;;;;5033789;28;20415;-68
2022/08/09 10:10:59;;;;;;;1999.90;999.90;;;26.50;91.90;;;;;;5033797;28;20450;-67
2022/08/09 10:13:39;;;;;;;1999.90;999.90;;;26.70;92.10;;;;;;5033768;28;20226;-68
2022/08/09 10:16:05;;;;;;;1999.90;999.90;;;26.80;91.10;;;;;;5033653;28;20180;-68
2022/08/09 10:18:30;;;;;;;1999.90;999.90;;;27.00;91.30;;;;;;5033629;28;20800;-68
2022/08/09 10:21:08;;;;;;;1999.90;999.90;;;27.30;89.10;;;;;;5034043;28;20262;-67
2022/08/09 10:23:35;;;;;;;1999.90;999.90;;;27.50;86.50;;;;;;5033423;28;20242;-68
2022/08/09 10:26:01;;;;;;;1999.90;999.90;;;27.40;82.10;;;;;;5033184;28;20449;-68
2022/08/09 10:28:32;;;;;;;1999.90;999.90;;;27.10;82.50;;;;;;5033298;28;20457;-68
2022/08/09 10:30:58;;;;;;;1999.90;999.90;;;27.10;83.20;;;;;;5033392;28;20478;-68
2022/08/09 10:33:24;;;;;;;1999.90;999.90;;;27.40;80.70;;;;;;5033092;28;20462;-68
2022/08/09 10:35:51;;;;;;;1999.90;999.90;;;27.30;78.10;;;;;;5033185;28;20510;-68
2022/08/09 10:38:18;;;;;;;1999.90;999.90;;;27.40;79.00;;;;;;5033033;28;20793;-67
2022/08/09 10:40:46;;;;;;;1999.90;999.90;;;27.60;76.80;;;;;;5033149;28;20399;-68
2022/08/09 10:43:12;;;;;;;1999.90;999.90;;;27.70;76.60;;;;;;5033167;28;20797;-67
2022/08/09 10:45:42;;;;;;;1999.90;999.90;;;27.80;73.70;;;;;;5033035;28;20385;-67
2022/08/09 10:48:35;;;;;;;1999.90;999.90;;;28.00;72.70;;;;;;5032689;28;20407;-68
2022/08/09 10:51:08;;;;;;;1999.90;999.90;;;28.00;69.90;;;;;;5024644;28;20433;-67
2022/08/09 10:53:55;;;;;;;1999.90;999.90;;;28.00;69.50;;;;;;5032767;28;20490;-68
2022/08/09 10:56:23;;;;;;;1999.90;999.90;;;28.30;67.60;;;;;;5032612;28;20488;-68
2022/08/09 10:58:57;;;;;;;1999.90;999.90;;;28.40;65.60;;;;;;5032731;28;20392;-68
2022/08/09 11:01:31;;;;;;;1999.90;999.90;;;28.40;63.90;;;;;;5033125;28;20809;-68
2022/08/09 11:04:13;;;;;;;1999.90;999.90;;;28.50;61.20;;;;;;5032650;28;20454;-68
2022/08/09 11:06:43;;;;;;;1999.90;999.90;;;28.50;61.80;;;;;;5032806;28;21022;-68
2022/08/09 11:09:10;;;;;;;1999.90;999.90;;;28.80;61.40;;;;;;5032658;28;21114;-68
2022/08/09 11:11:54;;;;;;;1999.90;999.90;;;28.90;57.60;;;;;;5032530;28;20423;-68
2022/08/09 11:14:46;;;;;;;1999.90;999.90;;;29.10;56.40;;;;;;5032571;28;20534;-68
2022/08/09 11:17:17;;;;;;;1999.90;999.90;;;29.40;54.80;;;;;;5032346;28;20438;-68
2022/08/09 11:19:53;;;;;;;1999.90;999.90;;;29.50;52.80;;;;;;5039611;28;20402;-67
2022/08/09 11:22:20;;;;;;;1999.90;999.90;;;29.50;51.50;;;;;;5021147;28;20493;-68
2022/08/09 11:25:06;;;;;;;1999.90;999.90;;;29.50;50.00;;;;;;5032333;28;20790;-68
2022/08/09 11:27:43;;;;;;;1999.90;999.90;;;29.50;50.10;;;;;;5033270;28;20414;-67
2022/08/09 11:30:20;;;;;;;1999.90;999.90;;;29.60;48.70;;;;;;5036242;28;20399;-68
2022/08/09 11:32:49;;;;;;;1999.90;999.90;;;29.70;47.80;;;;;;5035404;28;20402;-68
2022/08/09 11:35:24;;;;;;;1999.90;999.90;;;29.70;46.80;;;;;;5039926;28;20406;-68
2022/08/09 11:37:52;;;;;;;1999.90;999.90;;;29.70;44.50;;;;;;5035530;28;20403;-67
2022/08/09 11:40:30;;;;;;;1999.90;999.90;;;29.90;45.80;;;;;;5041463;28;20475;-67
2022/08/09 11:42:58;;;;;;;1999.90;999.90;;;30.00;43.70;;;;;;5038926;28;20796;-67
2022/08/09 11:45:24;;;;;;;1999.90;999.90;;;30.30;43.60;;;;;;5032399;28;20407;-67
2022/08/09 11:47:56;;;;;;;1999.90;999.90;;;30.30;41.50;;;;;;5031881;28;20406;-67
2022/08/09 11:50:22;;;;;;;1999.90;999.90;;;30.50;40.10;;;;;;5032066;28;20196;-67
2022/08/09 11:53:01;;;;;;;1999.90;999.90;;;30.50;39.30;;;;;;5031807;28;20406;-67
2022/08/09 11:55:33;;;;;;;1999.90;999.90;;;30.60;38.00;;;;;;5032679;28;20490;-67
2022/08/09 11:58:04;;;;;;;1999.90;999.90;;;30.70;38.10;;;;;;5022746;28;20782;-67
2022/08/09 12:00:31;;;;;;;1999.90;999.90;;;30.80;36.60;;;;;;5021601;28;20789;-67
2022/08/09 12:03:00;;;;;;;1999.90;999.90;;;30.90;36.00;;;;;;5039781;28;20426;-68
2022/08/09 12:05:34;;;;;;;1999.90;999.90;;;30.80;36.10;;;;;;5040175;28;20411;-68
2022/08/09 12:08:05;;;;;;;1999.90;999.90;;;31.20;35.80;;;;;;5038892;28;20496;-68